Time;durP1;ratioP1;P1;durP2;ratioP2;P2;SDS_P1;SDS_P2;PMS_P1;PMS_P2;Temp;Humidity;BMP_temperature;BMP_pressure;BME280_temperature;BME280_humidity;BME280_pressure;Samples;Min_cycle;Max_cycle;Signal;HPM_P1;HPM_P2
2022/02/22 00:01:50;;;;;;;0.40;0.20;;;;;;;5.09;100.00;99749.63;5013880;28;20452;-74
2022/02/22 00:04:17;;;;;;;0.40;0.30;;;;;;;5.18;100.00;99758.66;5014010;28;20484;-74
2022/02/22 00:06:43;;;;;;;0.40;0.20;;;;;;;5.19;100.00;99760.25;5014279;28;20448;-75
2022/02/22 00:09:11;;;;;;;0.40;0.30;;;;;;;5.18;100.00;99766.72;5013727;28;20476;-74
2022/02/22 00:11:38;;;;;;;0.40;0.23;;;;;;;5.21;100.00;99771.50;5014640;28;20798;-74
2022/02/22 00:14:04;;;;;;;0.40;0.30;;;;;;;5.28;100.00;99776.53;5013622;28;21009;-75
2022/02/22 00:16:31;;;;;;;0.40;0.30;;;;;;;5.26;100.00;99774.13;5013983;28;20456;-74
2022/02/22 00:18:57;;;;;;;0.40;0.30;;;;;;;5.29;100.00;99783.50;5013966;28;20440;-74
2022/02/22 00:21:24;;;;;;;0.40;0.20;;;;;;;5.30;100.00;99788.56;5013899;28;20444;-75
2022/02/22 00:23:50;;;;;;;0.40;0.30;;;;;;;5.38;100.00;99797.09;5013710;28;20495;-75
2022/02/22 00:26:19;;;;;;;0.40;0.20;;;;;;;5.42;100.00;99792.75;5013542;28;20953;-74
2022/02/22 00:28:45;;;;;;;0.40;0.30;;;;;;;5.45;100.00;99784.94;5013777;28;20551;-75
2022/02/22 00:31:12;;;;;;;0.40;0.30;;;;;;;5.45;100.00;99794.88;5013777;28;20494;-74
2022/02/22 00:33:38;;;;;;;0.40;0.27;;;;;;;5.43;100.00;99794.34;5013669;28;20464;-74
2022/02/22 00:36:05;;;;;;;0.40;0.30;;;;;;;5.50;100.00;99816.28;5013749;28;20459;-74
2022/02/22 00:38:31;;;;;;;0.40;0.20;;;;;;;5.50;100.00;99824.34;5013618;28;20448;-74
2022/02/22 00:40:58;;;;;;;0.40;0.20;;;;;;;5.55;100.00;99818.91;5013445;28;20934;-74
2022/02/22 00:43:26;;;;;;;0.40;0.30;;;;;;;5.59;100.00;99827.22;5013095;28;20464;-74
2022/02/22 00:45:52;;;;;;;0.40;0.30;;;;;;;5.62;100.00;99824.72;5013095;28;21009;-74
2022/02/22 00:48:19;;;;;;;0.40;0.30;;;;;;;5.66;100.00;99831.13;5013456;28;20444;-74
2022/02/22 00:50:45;;;;;;;0.40;0.20;;;;;;;5.62;100.00;99829.31;5013202;28;20448;-74
2022/02/22 00:53:12;;;;;;;0.40;0.30;;;;;;;5.67;100.00;99842.69;5013747;28;20472;-75
2022/02/22 00:55:38;;;;;;;0.40;0.30;;;;;;;5.64;100.00;99833.31;5013449;28;20447;-74
2022/02/22 00:58:06;;;;;;;0.40;0.20;;;;;;;5.68;100.00;99845.09;5013508;28;20455;-74
2022/02/22 01:00:34;;;;;;;0.40;0.30;;;;;;;5.69;100.00;99846.69;5013453;28;20539;-73
2022/02/22 01:03:00;;;;;;;0.40;0.30;;;;;;;5.70;100.00;99855.53;5013421;28;20464;-73
2022/02/22 01:05:26;;;;;;;0.40;0.30;;;;;;;5.69;100.00;99857.44;5013297;28;20518;-73
2022/02/22 01:07:53;;;;;;;0.40;0.20;;;;;;;5.71;100.00;99862.50;5013389;28;20448;-74
2022/02/22 01:10:19;;;;;;;0.40;0.30;;;;;;;5.74;100.00;99859.25;5013063;28;20949;-74
2022/02/22 01:12:46;;;;;;;0.40;0.30;;;;;;;5.79;100.00;99862.69;5012931;28;20471;-74
2022/02/22 01:15:12;;;;;;;0.40;0.27;;;;;;;5.79;100.00;99860.00;5013264;28;20452;-74
2022/02/22 01:17:40;;;;;;;0.40;0.30;;;;;;;5.78;100.00;99866.47;5013310;28;20451;-74
2022/02/22 01:20:09;;;;;;;0.40;0.30;;;;;;;5.80;100.00;99871.56;5013178;28;20451;-72
2022/02/22 01:22:37;;;;;;;0.40;0.20;;;;;;;5.82;100.00;99877.44;5012810;28;20468;-72
2022/02/22 01:25:04;;;;;;;0.40;0.30;;;;;;;5.82;100.00;99878.25;5013102;28;20877;-72
2022/02/22 01:27:31;;;;;;;0.40;0.30;;;;;;;5.80;100.00;99885.00;5013252;28;20440;-73
2022/02/22 01:29:57;;;;;;;0.40;0.20;;;;;;;5.80;100.00;99876.94;5013212;28;20440;-72
2022/02/22 01:32:24;;;;;;;0.40;0.30;;;;;;;5.80;100.00;99893.06;5012717;28;21036;-73
2022/02/22 01:34:52;;;;;;;0.40;0.30;;;;;;;5.83;100.00;99893.28;5013129;28;20801;-72
2022/02/22 01:37:18;;;;;;;0.40;0.20;;;;;;;5.87;100.00;99895.41;5012813;28;20964;-72
2022/02/22 01:39:45;;;;;;;0.40;0.20;;;;;;;5.87;100.00;99901.56;5013139;28;20451;-73
2022/02/22 01:42:12;;;;;;;0.40;0.30;;;;;;;5.91;100.00;99915.22;5012984;28;20459;-72
2022/02/22 01:44:39;;;;;;;0.40;0.30;;;;;;;5.88;100.00;99911.22;5012980;28;20484;-72
2022/02/22 01:47:07;;;;;;;0.40;0.20;;;;;;;5.89;100.00;99906.63;5013028;28;20447;-73
2022/02/22 01:49:33;;;;;;;0.40;0.30;;;;;;;5.79;100.00;99911.03;5012953;28;20447;-74
2022/02/22 01:52:02;;;;;;;0.40;0.30;;;;;;;5.76;100.00;99926.97;5012976;28;20436;-72
2022/02/22 01:54:29;;;;;;;0.40;0.30;;;;;;;5.72;100.00;99923.25;5012943;28;20526;-73
2022/02/22 01:56:56;;;;;;;0.40;0.23;;;;;;;5.70;100.00;99928.09;5015237;28;20447;-73
2022/02/22 01:59:23;;;;;;;0.40;0.30;;;;;;;5.76;100.00;99937.72;5016132;28;20440;-72
2022/02/22 02:01:49;;;;;;;0.40;0.20;;;;;;;5.74;100.00;99940.66;5016109;28;20455;-73
2022/02/22 02:04:16;;;;;;;0.40;0.30;;;;;;;5.69;100.00;99947.97;5015603;28;21103;-73
2022/02/22 02:06:42;;;;;;;0.40;0.30;;;;;;;5.67;100.00;99948.28;5016320;28;20443;-74
2022/02/22 02:09:11;;;;;;;0.40;0.30;;;;;;;5.66;100.00;99959.28;5015907;28;20803;-73
2022/02/22 02:11:45;;;;;;;0.40;0.30;;;;;;;5.65;100.00;99966.56;5016224;28;20451;-74
2022/02/22 02:14:12;;;;;;;0.40;0.30;;;;;;;5.63;100.00;99982.16;5015808;28;20475;-73
2022/02/22 02:16:39;;;;;;;0.40;0.30;;;;;;;5.65;100.00;99971.91;5016143;28;20447;-74
2022/02/22 02:19:05;;;;;;;0.40;0.30;;;;;;;5.66;100.00;99970.03;5016034;28;20443;-74
2022/02/22 02:21:32;;;;;;;0.40;0.20;;;;;;;5.67;100.00;99977.81;5016022;28;20444;-72
2022/02/22 02:24:09;;;;;;;0.40;0.30;;;;;;;5.65;100.00;99984.56;5015930;28;20464;-73
2022/02/22 02:26:37;;;;;;;0.40;0.30;;;;;;;5.67;100.00;99983.19;5015924;28;20432;-73
2022/02/22 02:29:03;;;;;;;0.40;0.30;;;;;;;5.73;100.00;99986.63;5015911;28;20440;-72
2022/02/22 02:31:29;;;;;;;0.40;0.30;;;;;;;5.69;100.00;99991.75;5015820;28;20497;-72
2022/02/22 02:33:56;;;;;;;0.40;0.20;;;;;;;5.72;100.00;99995.78;5015768;28;20471;-73
2022/02/22 02:36:23;;;;;;;0.40;0.30;;;;;;;5.71;100.00;99997.69;5015765;28;20547;-72
2022/02/22 02:38:49;;;;;;;0.40;0.20;;;;;;;5.67;100.00;100012.75;5015652;28;20451;-73
2022/02/22 02:41:17;;;;;;;0.40;0.20;;;;;;;5.71;100.00;100019.16;5015689;28;20453;-74
2022/02/22 02:43:43;;;;;;;0.40;0.30;;;;;;;5.67;100.00;100018.13;5015530;28;20463;-74
2022/02/22 02:46:10;;;;;;;0.40;0.20;;;;;;;5.61;100.00;100021.13;5015220;28;21024;-74
2022/02/22 02:48:36;;;;;;;0.40;0.20;;;;;;;5.57;100.00;100015.50;5015527;28;20825;-72
2022/02/22 02:51:03;;;;;;;0.40;0.20;;;;;;;5.55;100.00;100020.38;5015167;28;20444;-72
2022/02/22 02:53:29;;;;;;;0.40;0.20;;;;;;;5.53;100.00;100017.16;5015381;28;20460;-74
2022/02/22 02:55:56;;;;;;;0.40;0.20;;;;;;;5.50;100.00;100031.16;5015316;28;20446;-72
2022/02/22 02:58:23;;;;;;;0.40;0.30;;;;;;;5.53;100.00;100030.59;5015580;28;20444;-74
2022/02/22 03:00:50;;;;;;;0.40;0.30;;;;;;;5.52;100.00;100035.16;5015124;28;20483;-75
2022/02/22 03:03:19;;;;;;;0.40;0.30;;;;;;;5.55;100.00;100048.03;5015199;28;20468;-75
2022/02/22 03:05:46;;;;;;;0.40;0.30;;;;;;;5.51;100.00;100044.31;5015149;28;20849;-74
2022/02/22 03:08:12;;;;;;;0.40;0.30;;;;;;;5.47;100.00;100045.16;5015870;28;20498;-74
2022/02/22 03:10:39;;;;;;;0.40;0.20;;;;;;;5.53;100.00;100052.06;5015091;28;20455;-74
2022/02/22 03:13:05;;;;;;;0.40;0.20;;;;;;;5.53;100.00;100055.59;5015017;28;20476;-74
2022/02/22 03:15:33;;;;;;;0.40;0.30;;;;;;;5.52;100.00;100059.34;5015074;28;20444;-75
2022/02/22 03:17:59;;;;;;;0.40;0.30;;;;;;;5.57;100.00;100066.53;5014714;28;20870;-74
2022/02/22 03:20:26;;;;;;;0.40;0.20;;;;;;;5.59;100.00;100077.03;5014919;28;20455;-74
2022/02/22 03:22:53;;;;;;;0.40;0.20;;;;;;;5.57;100.00;100069.25;5014876;28;20837;-74
2022/02/22 03:25:20;;;;;;;0.40;0.20;;;;;;;5.55;100.00;100072.22;5014711;28;20494;-75
2022/02/22 03:27:47;;;;;;;0.40;0.20;;;;;;;5.57;100.00;100074.59;5014834;28;20441;-74
2022/02/22 03:30:13;;;;;;;0.40;0.30;;;;;;;5.56;100.00;100078.38;5014465;28;20798;-74
2022/02/22 03:32:41;;;;;;;0.40;0.20;;;;;;;5.56;100.00;100089.94;5014677;28;20475;-74
2022/02/22 03:35:08;;;;;;;0.40;0.30;;;;;;;5.60;100.00;100100.13;5014734;28;20455;-76
2022/02/22 03:37:34;;;;;;;0.40;0.20;;;;;;;5.54;100.00;100108.22;5014686;28;20455;-76
2022/02/22 03:40:01;;;;;;;0.40;0.20;;;;;;;5.57;100.00;100104.97;5014634;28;20444;-75
2022/02/22 03:42:27;;;;;;;0.40;0.20;;;;;;;5.59;100.00;100104.69;5014434;28;20464;-76
2022/02/22 03:44:54;;;;;;;0.40;0.23;;;;;;;5.63;100.00;100103.06;5015823;28;21062;-77
2022/02/22 03:47:20;;;;;;;0.40;0.20;;;;;;;5.59;100.00;100114.66;5016489;28;20444;-78
2022/02/22 03:49:48;;;;;;;0.40;0.27;;;;;;;5.66;99.89;100126.66;5015128;28;20455;-74
2022/02/22 03:52:14;;;;;;;0.40;0.30;;;;;;;5.66;99.18;100120.50;5014177;28;20451;-77
2022/02/22 03:54:41;;;;;;;2.20;2.00;;;;;;;5.60;98.69;100135.84;5014511;28;20542;-76
2022/02/22 03:57:07;;;;;;;0.40;0.30;;;;;;;5.65;97.24;100141.19;5014555;28;20448;-76
2022/02/22 03:59:34;;;;;;;0.40;0.30;;;;;;;5.69;96.67;100144.91;5014260;28;20452;-75
2022/02/22 04:02:03;;;;;;;0.40;0.23;;;;;;;5.71;94.84;100156.22;5014113;28;20456;-75
2022/02/22 04:04:29;;;;;;;0.40;0.20;;;;;;;5.69;93.68;100150.28;5014156;28;20543;-75
2022/02/22 04:06:57;;;;;;;0.40;0.30;;;;;;;5.64;93.06;100166.44;5014084;28;20484;-76
2022/02/22 04:09:24;;;;;;;0.40;0.20;;;;;;;5.61;92.26;100175.06;5014093;28;20455;-76
2022/02/22 04:11:50;;;;;;;0.40;0.20;;;;;;;5.55;91.59;100170.81;5014116;28;20463;-75
2022/02/22 04:14:16;;;;;;;0.40;0.30;;;;;;;5.51;89.60;100183.19;5013841;28;20468;-77
2022/02/22 04:16:43;;;;;;;0.40;0.20;;;;;;;5.52;87.42;100195.53;5014032;28;20802;-77
2022/02/22 04:19:09;;;;;;;0.40;0.20;;;;;;;5.52;88.30;100203.59;5013271;28;20452;-77
2022/02/22 04:21:36;;;;;;;0.40;0.20;;;;;;;5.60;87.22;100203.00;5013957;28;20454;-77
2022/02/22 04:24:04;;;;;;;0.40;0.20;;;;;;;5.56;86.98;100208.13;5013596;28;20510;-75
2022/02/22 04:26:30;;;;;;;0.40;0.20;;;;;;;5.51;87.85;100213.53;5014003;28;20495;-77
2022/02/22 04:29:00;;;;;;;0.40;0.30;;;;;;;5.49;85.67;100229.13;5014129;28;20455;-76
2022/02/22 04:31:26;;;;;;;0.40;0.27;;;;;;;5.52;86.26;100233.13;5013584;28;20444;-77
2022/02/22 04:33:53;;;;;;;0.40;0.30;;;;;;;5.49;86.89;100229.13;5013684;28;20893;-76
2022/02/22 04:36:19;;;;;;;0.40;0.30;;;;;;;5.46;87.34;100234.25;5013747;28;20440;-76
2022/02/22 04:38:46;;;;;;;0.40;0.30;;;;;;;5.42;86.36;100241.25;5013664;28;20447;-75
2022/02/22 04:41:14;;;;;;;0.40;0.30;;;;;;;5.49;86.07;100255.16;5013720;28;20518;-75
2022/02/22 04:43:40;;;;;;;0.40;0.30;;;;;;;5.46;85.07;100261.09;5013505;28;20487;-75
2022/02/22 04:46:07;;;;;;;0.40;0.30;;;;;;;5.47;85.24;100257.34;5013557;28;20483;-76
2022/02/22 04:48:33;;;;;;;0.40;0.30;;;;;;;5.52;84.94;100268.06;5013574;28;20444;-75
2022/02/22 04:51:00;;;;;;;0.40;0.23;;;;;;;5.46;86.31;100277.22;5013701;28;20460;-76
2022/02/22 04:53:26;;;;;;;0.40;0.30;;;;;;;5.47;86.70;100279.63;5013523;28;20471;-76
2022/02/22 04:55:52;;;;;;;0.40;0.30;;;;;;;5.48;86.65;100278.53;5013205;28;20953;-76
2022/02/22 04:58:20;;;;;;;0.40;0.30;;;;;;;5.43;85.96;100291.19;5013456;28;20440;-76
2022/02/22 05:00:47;;;;;;;0.40;0.30;;;;;;;5.46;86.69;100291.44;5013318;28;20471;-76
2022/02/22 05:03:14;;;;;;;0.40;0.20;;;;;;;5.46;86.84;100293.34;5013298;28;20555;-75
2022/02/22 05:05:40;;;;;;;0.40;0.30;;;;;;;5.46;86.25;100294.13;5013272;28;20499;-75
2022/02/22 05:08:07;;;;;;;0.40;0.20;;;;;;;5.44;86.55;100303.53;5013516;28;20440;-75
2022/02/22 05:10:33;;;;;;;0.40;0.20;;;;;;;5.37;87.43;100317.25;5013310;28;20436;-75
2022/02/22 05:13:00;;;;;;;0.40;0.20;;;;;;;5.32;86.69;100318.09;5013279;28;20478;-76
2022/02/22 05:15:31;;;;;;;0.40;0.30;;;;;;;5.31;86.83;100323.69;5013289;28;20463;-76
2022/02/22 05:17:58;;;;;;;0.40;0.20;;;;;;;5.26;87.39;100316.47;5013499;28;20429;-76
2022/02/22 05:20:24;;;;;;;0.40;0.30;;;;;;;5.30;87.33;100316.72;5013388;28;20440;-75
2022/02/22 05:22:51;;;;;;;0.40;0.30;;;;;;;5.36;86.47;100333.63;5013266;28;20522;-73
2022/02/22 05:25:17;;;;;;;0.40;0.20;;;;;;;5.35;86.31;100332.03;5013231;28;20447;-76
2022/02/22 05:27:45;;;;;;;0.40;0.30;;;;;;;5.28;86.43;100332.31;5013248;28;20807;-76
2022/02/22 05:30:14;;;;;;;0.40;0.30;;;;;;;5.35;85.70;100334.72;5014654;28;20448;-76
2022/02/22 05:32:42;;;;;;;0.40;0.30;;;;;;;5.35;85.69;100340.88;5016918;28;20471;-76
2022/02/22 05:35:10;;;;;;;0.40;0.23;;;;;;;5.30;84.98;100339.00;5017004;28;20448;-77
2022/02/22 05:37:37;;;;;;;0.40;0.30;;;;;;;5.34;85.64;100336.59;5016687;28;20844;-76
2022/02/22 05:40:05;;;;;;;0.40;0.30;;;;;;;5.35;85.37;100350.81;5016381;28;20448;-75
2022/02/22 05:42:33;;;;;;;0.40;0.30;;;;;;;5.37;84.42;100364.81;5016350;28;20464;-76
2022/02/22 05:45:00;;;;;;;0.40;0.30;;;;;;;5.29;83.85;100344.66;5016495;28;20872;-76
2022/02/22 05:47:27;;;;;;;0.40;0.30;;;;;;;5.30;85.15;100360.50;5016210;28;20479;-76
2022/02/22 05:49:55;;;;;;;0.40;0.30;;;;;;;5.28;84.87;100357.28;5015968;28;20905;-77
2022/02/22 05:52:21;;;;;;;0.40;0.30;;;;;;;5.24;84.83;100379.59;5015829;28;20997;-72
2022/02/22 05:54:47;;;;;;;0.40;0.30;;;;;;;5.28;84.33;100384.16;5016449;28;20459;-70
2022/02/22 05:57:14;;;;;;;0.40;0.20;;;;;;;5.29;85.13;100391.13;5016478;28;20447;-71
2022/02/22 05:59:40;;;;;;;0.40;0.30;;;;;;;5.31;85.13;100404.25;5016180;28;20840;-71
2022/02/22 06:02:07;;;;;;;0.60;0.40;;;;;;;5.29;85.13;100399.19;5016033;28;20455;-71
2022/02/22 06:04:33;;;;;;;0.40;0.27;;;;;;;5.27;85.14;100412.09;5016488;28;20444;-70
2022/02/22 06:07:01;;;;;;;0.40;0.20;;;;;;;5.32;84.93;100416.66;5016210;28;20553;-71
2022/02/22 06:09:28;;;;;;;0.40;0.30;;;;;;;5.31;84.83;100420.38;5016259;28;20444;-73
2022/02/22 06:11:54;;;;;;;0.40;0.30;;;;;;;5.30;85.39;100430.31;5016195;28;20445;-73
2022/02/22 06:14:20;;;;;;;0.40;0.30;;;;;;;5.29;84.86;100417.97;5016486;28;20491;-75
2022/02/22 06:16:48;;;;;;;0.40;0.20;;;;;;;5.27;85.52;100427.38;5016579;28;20817;-77
2022/02/22 06:19:15;;;;;;;0.40;0.30;;;;;;;5.24;85.22;100430.59;5016120;28;20443;-72
2022/02/22 06:21:41;;;;;;;0.40;0.30;;;;;;;5.15;86.22;100437.59;5016091;28;20444;-74
2022/02/22 06:24:09;;;;;;;0.40;0.30;;;;;;;5.07;86.15;100441.59;5016153;28;20468;-78
2022/02/22 06:26:36;;;;;;;0.40;0.20;;;;;;;5.14;86.20;100450.22;5016228;28;20492;-75
2022/02/22 06:29:02;;;;;;;1.17;1.17;;;;;;;5.18;85.56;100448.59;5015981;28;20567;-74
2022/02/22 06:31:29;;;;;;;0.40;0.30;;;;;;;5.17;86.31;100446.97;5015899;28;20946;-75
2022/02/22 06:33:55;;;;;;;0.40;0.30;;;;;;;5.15;86.18;100454.50;5015828;28;20460;-74
2022/02/22 06:36:22;;;;;;;0.40;0.30;;;;;;;5.18;86.25;100464.72;5015715;28;20444;-74
2022/02/22 06:38:50;;;;;;;0.40;0.30;;;;;;;5.23;85.84;100462.03;5015779;28;20448;-74
2022/02/22 06:41:17;;;;;;;0.40;0.30;;;;;;;5.27;85.46;100471.16;5015070;28;20444;-73
2022/02/22 06:43:44;;;;;;;0.40;0.30;;;;;;;5.23;85.72;100466.59;5015542;28;20832;-74
2022/02/22 06:46:10;;;;;;;0.40;0.30;;;;;;;5.24;86.42;100469.00;5015241;28;21028;-75
2022/02/22 06:48:37;;;;;;;0.40;0.20;;;;;;;5.22;86.40;100468.47;5015328;28;20933;-74
2022/02/22 06:51:03;;;;;;;0.40;0.20;;;;;;;5.20;86.03;100481.34;5015215;28;20942;-74
2022/02/22 06:53:29;;;;;;;0.40;0.20;;;;;;;5.14;86.35;100479.75;5015016;28;21008;-74
2022/02/22 06:55:56;;;;;;;0.40;0.30;;;;;;;5.18;86.11;100486.19;5015496;28;20455;-75
2022/02/22 06:58:24;;;;;;;0.40;0.30;;;;;;;5.13;86.19;100477.31;5015319;28;20805;-75
2022/02/22 07:00:51;;;;;;;0.50;0.50;;;;;;;5.02;87.32;100495.28;5015067;28;20514;-74
2022/02/22 07:03:17;;;;;;;0.40;0.30;;;;;;;5.08;87.22;100502.25;5015055;28;20559;-69
2022/02/22 07:05:44;;;;;;;0.40;0.30;;;;;;;5.06;87.35;100504.44;5014786;28;20953;-73
2022/02/22 07:08:11;;;;;;;0.40;0.20;;;;;;;5.09;86.80;100498.53;5015184;28;20440;-70
2022/02/22 07:10:38;;;;;;;0.40;0.30;;;;;;;5.09;86.05;100503.91;5015196;28;20444;-73
2022/02/22 07:13:04;;;;;;;0.40;0.20;;;;;;;5.09;86.20;100505.75;5015059;28;20540;-73
2022/02/22 07:15:32;;;;;;;0.40;0.30;;;;;;;5.09;86.21;100514.63;5015104;28;20444;-72
2022/02/22 07:18:03;;;;;;;0.40;0.30;;;;;;;5.11;85.68;100514.38;5015059;28;20440;-73
2022/02/22 07:20:30;;;;;;;0.40;0.30;;;;;;;5.13;85.52;100526.44;5015000;28;20424;-73
2022/02/22 07:22:56;;;;;;;0.40;0.30;;;;;;;5.12;85.79;100535.56;5014855;28;20518;-72
2022/02/22 07:25:24;;;;;;;0.40;0.20;;;;;;;5.12;85.57;100527.50;5014799;28;20451;-70
2022/02/22 07:27:51;;;;;;;0.40;0.30;;;;;;;5.08;86.46;100539.84;5014770;28;20833;-73
2022/02/22 07:30:20;;;;;;;0.40;0.30;;;;;;;5.04;86.21;100539.56;5014744;28;20808;-73
2022/02/22 07:32:49;;;;;;;0.40;0.30;;;;;;;5.08;86.08;100542.53;5014633;28;20471;-71
2022/02/22 07:35:15;;;;;;;0.40;0.30;;;;;;;5.07;85.99;100549.78;5014681;28;20439;-74
2022/02/22 07:37:44;;;;;;;0.40;0.30;;;;;;;5.05;86.45;100551.94;5014333;28;20964;-75
2022/02/22 07:40:12;;;;;;;0.40;0.20;;;;;;;5.00;86.75;100556.47;5014294;28;20945;-74
2022/02/22 07:42:40;;;;;;;0.40;0.30;;;;;;;4.99;87.28;100558.34;5013701;28;20476;-74
2022/02/22 07:45:08;;;;;;;0.40;0.30;;;;;;;4.96;86.38;100572.31;5013695;28;20818;-75
2022/02/22 07:47:35;;;;;;;0.40;0.20;;;;;;;5.00;86.17;100572.56;5013780;28;20487;-74
2022/02/22 07:50:04;;;;;;;0.40;0.30;;;;;;;5.04;86.65;100593.25;5013946;28;20836;-72
2022/02/22 07:52:31;;;;;;;0.40;0.30;;;;;;;5.06;85.95;100566.16;5014205;28;20459;-72
2022/02/22 07:54:58;;;;;;;0.40;0.30;;;;;;;5.12;85.29;100572.34;5013617;28;20498;-72
2022/02/22 07:57:25;;;;;;;0.40;0.20;;;;;;;5.11;85.47;100586.84;5014288;28;20506;-70
2022/02/22 07:59:51;;;;;;;0.40;0.30;;;;;;;5.18;86.34;100592.75;5014336;28;20447;-71
2022/02/22 08:02:18;;;;;;;0.40;0.20;;;;;;;5.24;85.99;100584.47;5013936;28;20554;-71
2022/02/22 08:04:44;;;;;;;0.40;0.30;;;;;;;5.28;85.81;100593.59;5014141;28;20801;-71
2022/02/22 08:07:12;;;;;;;0.40;0.30;;;;;;;5.29;86.26;100607.84;5014027;28;20574;-71
2022/02/22 08:09:38;;;;;;;0.40;0.20;;;;;;;5.36;86.01;100613.78;5014069;28;20464;-71
2022/02/22 08:12:06;;;;;;;0.40;0.20;;;;;;;5.45;86.67;100617.53;5013991;28;20450;-71
2022/02/22 08:14:32;;;;;;;0.40;0.30;;;;;;;5.56;85.58;100623.72;5014166;28;20444;-71
2022/02/22 08:17:00;;;;;;;0.40;0.30;;;;;;;5.59;86.65;100627.78;5013756;28;20868;-71
2022/02/22 08:19:27;;;;;;;0.40;0.20;;;;;;;5.56;86.57;100627.22;5013714;28;20447;-71
2022/02/22 08:21:53;;;;;;;0.40;0.30;;;;;;;5.62;85.87;100628.03;5013952;28;20502;-71
2022/02/22 08:24:22;;;;;;;0.40;0.20;;;;;;;5.56;86.30;100631.78;5013593;28;20459;-71
2022/02/22 08:26:49;;;;;;;0.40;0.30;;;;;;;5.54;86.54;100632.06;5013828;28;20522;-71
2022/02/22 08:29:15;;;;;;;0.40;0.27;;;;;;;5.52;86.64;100636.06;5013776;28;20490;-71
2022/02/22 08:31:42;;;;;;;0.40;0.30;;;;;;;5.54;86.53;100637.44;5013795;28;20444;-71
2022/02/22 08:34:08;;;;;;;0.40;0.30;;;;;;;5.52;87.04;100636.88;5013618;28;20460;-71
2022/02/22 08:36:35;;;;;;;0.40;0.20;;;;;;;5.56;85.81;100656.78;5013748;28;20444;-71
2022/02/22 08:39:01;;;;;;;0.40;0.30;;;;;;;5.60;85.13;100654.38;5013680;28;20447;-71
2022/02/22 08:41:29;;;;;;;0.40;0.30;;;;;;;5.64;86.04;100658.13;5013600;28;20448;-71
2022/02/22 08:43:56;;;;;;;0.40;0.27;;;;;;;5.55;84.11;100665.91;5013459;28;20472;-72
2022/02/22 08:46:23;;;;;;;0.40;0.30;;;;;;;5.65;83.48;100681.25;5013358;28;20865;-71
2022/02/22 08:48:50;;;;;;;0.40;0.30;;;;;;;5.67;82.58;100671.06;5013585;28;20498;-72
2022/02/22 08:51:17;;;;;;;0.40;0.30;;;;;;;5.73;82.69;100691.47;5013745;28;20448;-71
2022/02/22 08:53:43;;;;;;;0.40;0.20;;;;;;;5.85;80.86;100682.38;5013467;28;20503;-71
2022/02/22 08:56:10;;;;;;;0.40;0.30;;;;;;;5.91;80.83;100682.09;5013490;28;20443;-72
2022/02/22 08:58:38;;;;;;;0.40;0.30;;;;;;;6.00;80.10;100679.72;5013498;28;20502;-71
2022/02/22 09:01:04;;;;;;;0.40;0.30;;;;;;;6.10;80.21;100685.09;5012525;28;20852;-70
2022/02/22 09:03:32;;;;;;;0.40;0.30;;;;;;;6.20;79.53;100684.31;5013036;28;20468;-71
2022/02/22 09:05:59;;;;;;;0.40;0.27;;;;;;;6.17;79.78;100685.63;5015149;28;20433;-71
2022/02/22 09:08:29;;;;;;;0.40;0.30;;;;;;;6.12;79.79;100693.72;5018211;28;21015;-71
2022/02/22 09:10:55;;;;;;;0.40;0.30;;;;;;;6.05;80.16;100717.34;5017488;28;20513;-71
2022/02/22 09:13:23;;;;;;;0.40;0.30;;;;;;;5.93;81.62;100708.72;5016891;28;20893;-71
2022/02/22 09:15:53;;;;;;;0.40;0.20;;;;;;;6.05;81.34;100709.28;5017313;28;20444;-71
2022/02/22 09:18:20;;;;;;;0.40;0.30;;;;;;;6.05;80.85;100709.28;5016953;28;20483;-71
2022/02/22 09:20:47;;;;;;;0.40;0.30;;;;;;;6.01;81.85;100724.34;5017089;28;20444;-72
2022/02/22 09:23:14;;;;;;;0.40;0.30;;;;;;;5.90;82.13;100722.69;5016676;28;20977;-72
2022/02/22 09:25:40;;;;;;;0.40;0.23;;;;;;;5.95;82.20;100725.41;5016631;28;20789;-72
2022/02/22 09:28:09;;;;;;;0.40;0.20;;;;;;;6.05;82.13;100726.22;5016609;28;20999;-72
2022/02/22 09:30:36;;;;;;;0.40;0.20;;;;;;;6.05;82.20;100722.72;5016275;28;20860;-71
2022/02/22 09:33:05;;;;;;;0.40;0.20;;;;;;;6.04;82.39;100726.50;5016890;28;20523;-72
2022/02/22 09:35:33;;;;;;;0.40;0.30;;;;;;;6.06;83.18;100727.88;5016804;28;20447;-72
2022/02/22 09:37:59;;;;;;;0.40;0.30;;;;;;;6.12;82.39;100733.25;5016809;28;20436;-72
2022/02/22 09:40:28;;;;;;;0.40;0.20;;;;;;;6.18;81.30;100735.66;5016766;28;20455;-72
2022/02/22 09:42:55;;;;;;;0.40;0.20;;;;;;;6.31;82.00;100740.50;5016699;28;20471;-72
2022/02/22 09:45:22;;;;;;;0.40;0.23;;;;;;;6.39;81.28;100741.06;5016663;28;20818;-72
2022/02/22 09:47:49;;;;;;;0.40;0.30;;;;;;;6.37;80.47;100740.50;5016174;28;21008;-72
2022/02/22 09:50:17;;;;;;;0.40;0.23;;;;;;;6.48;79.18;100742.13;5016592;28;20446;-72
2022/02/22 09:52:44;;;;;;;0.40;0.23;;;;;;;6.53;79.84;100748.31;5016600;28;20472;-72
2022/02/22 09:55:11;;;;;;;0.40;0.20;;;;;;;6.67;78.38;100759.31;5016521;28;20459;-72
2022/02/22 09:57:38;;;;;;;0.40;0.30;;;;;;;6.74;78.40;100770.63;5016473;28;20517;-72
2022/02/22 10:00:15;;;;;;;0.40;0.30;;;;;;;6.65;77.12;100769.56;5016415;28;20862;-72
2022/02/22 10:02:42;;;;;;;0.40;0.30;;;;;;;6.78;75.67;100766.31;5016418;28;20482;-71
2022/02/22 10:05:13;;;;;;;0.40;0.20;;;;;;;6.85;75.30;100768.72;5016157;28;20448;-71
2022/02/22 10:07:49;;;;;;;0.40;0.30;;;;;;;6.88;76.04;100749.34;5016188;28;20479;-72
2022/02/22 10:10:16;;;;;;;0.40;0.27;;;;;;;6.89;76.09;100756.34;5016489;28;20446;-72
2022/02/22 10:12:42;;;;;;;0.40;0.30;;;;;;;6.88;75.67;100767.38;5016051;28;20468;-72
2022/02/22 10:15:10;;;;;;;0.40;0.20;;;;;;;6.92;75.11;100787.31;5015871;28;20443;-72
2022/02/22 10:17:37;;;;;;;0.40;0.20;;;;;;;6.90;75.26;100767.91;5014911;28;20864;-72
2022/02/22 10:20:06;;;;;;;0.40;0.30;;;;;;;6.91;76.02;100770.34;5016020;28;20459;-71
2022/02/22 10:22:33;;;;;;;0.40;0.27;;;;;;;6.83;75.26;100769.00;5015914;28;20475;-73
2022/02/22 10:25:06;;;;;;;0.40;0.30;;;;;;;6.93;75.33;100772.75;5015575;28;20948;-71
2022/02/22 10:27:47;;;;;;;0.40;0.20;;;;;;;6.93;76.79;100794.31;5016102;28;21056;-72
2022/02/22 10:30:28;;;;;;;0.40;0.30;;;;;;;7.00;77.08;100782.19;5015824;28;20847;-72
2022/02/22 10:32:55;;;;;;;0.40;0.20;;;;;;;7.05;77.22;100792.13;5015636;28;20474;-72
2022/02/22 10:35:29;;;;;;;0.40;0.30;;;;;;;6.96;76.07;100799.16;5015776;28;20452;-73
2022/02/22 10:37:55;;;;;;;0.40;0.30;;;;;;;7.02;75.13;100801.56;5015664;28;20436;-72
2022/02/22 10:40:28;;;;;;;0.40;0.30;;;;;;;7.06;74.96;100793.75;5015356;28;20964;-72
2022/02/22 10:42:55;;;;;;;0.40;0.20;;;;;;;7.05;75.82;100801.03;5015542;28;20511;-72
2022/02/22 10:45:21;;;;;;;0.40;0.30;;;;;;;7.24;75.20;100811.22;5015524;28;20929;-71
2022/02/22 10:47:49;;;;;;;0.40;0.30;;;;;;;7.36;74.31;100802.84;5015518;28;20502;-72
2022/02/22 10:50:23;;;;;;;0.40;0.30;;;;;;;7.45;72.97;100795.81;5015380;28;20476;-72
2022/02/22 10:52:49;;;;;;;0.40;0.30;;;;;;;7.45;74.39;100798.50;5015274;28;20478;-73
2022/02/22 10:55:15;;;;;;;0.40;0.20;;;;;;;7.48;73.22;100811.41;5015378;28;20443;-72
2022/02/22 10:57:44;;;;;;;0.40;0.30;;;;;;;7.45;74.10;100802.00;5015322;28;20459;-72
2022/02/22 11:00:12;;;;;;;0.40;0.30;;;;;;;7.43;73.36;100803.34;5015311;28;20510;-72
2022/02/22 11:02:39;;;;;;;0.40;0.27;;;;;;;7.54;74.35;100794.16;5015092;28;20514;-72
2022/02/22 11:05:07;;;;;;;0.40;0.20;;;;;;;7.72;72.32;100817.81;5015294;28;20576;-72
2022/02/22 11:07:33;;;;;;;0.40;0.30;;;;;;;7.90;72.26;100802.91;5014872;28;20491;-72
2022/02/22 11:10:00;;;;;;;0.40;0.30;;;;;;;8.03;72.60;100796.88;5015196;28;20502;-72
2022/02/22 11:12:33;;;;;;;0.40;0.30;;;;;;;8.15;71.22;100820.03;5015041;28;20884;-72
2022/02/22 11:15:10;;;;;;;0.40;0.30;;;;;;;8.13;71.46;100811.41;5015113;28;20432;-73
2022/02/22 11:17:47;;;;;;;0.40;0.30;;;;;;;8.10;70.34;100810.06;5014788;28;20959;-72
2022/02/22 11:20:25;;;;;;;0.40;0.30;;;;;;;8.06;69.60;100814.41;5015063;28;20455;-73
2022/02/22 11:22:56;;;;;;;0.40;0.30;;;;;;;8.12;71.01;100818.69;5014878;28;20464;-72
2022/02/22 11:25:28;;;;;;;0.40;0.30;;;;;;;8.27;69.22;100823.97;5014879;28;20448;-73
2022/02/22 11:28:01;;;;;;;0.40;0.27;;;;;;;8.25;68.27;100822.66;5014553;28;20563;-72
2022/02/22 11:30:31;;;;;;;0.40;0.30;;;;;;;8.20;70.75;100817.31;5014544;28;20899;-72
2022/02/22 11:33:00;;;;;;;0.40;0.30;;;;;;;8.32;70.07;100825.84;5014333;28;21004;-72